LFLXEBCV

Guest
Details From LFLX - Chateauroux Deols
To EBCV - Chievres AB
Flight Number -
Tags generated
Created
Modified
Stats Distance 239 nm / 443 km
Max Altitude 31,300 ft / 9,540 m
Waypoints 5
Social Downloads 0
Likes 0
Share VATSIM

Download

Looking for another format? Having issues loading an existing format? Contact us
Advertisement - Login to hide

Notes

Basic altitude profile: - Ascent Rate: 2500ft/min - Ascent Speed: 250kts - Cruise Altitude: 35000ft - Cruise Speed: 420kts - Descent Rate: 1500ft/min - Descent Speed: 250kts Options: - Use NATs: yes - Use PACOTS: yes - Use low airways: yes - Use high airways: yes

Route

LFLX ODEBU UL194 BSN EBCV

ID Type Via Altitude Latitude Longitude Leg Dist Tot Dist Heading (true) Name
O LFLX APT - 0 ft / 0 m 46.86375˚ 1.73167˚ - 0 nm - Chateauroux Deols
ODEBU FIX - 31,300 ft / 9,540 m 48.28111˚ 2.62611˚ 92 nm 92 nm 23° / 23° -
CLM VOR UL194 (AWY-HI) 23,400 ft / 7,132 m 48.84464˚ 3.01386˚ 37 nm 129 nm 24° / 25° COULOMMIERS Voisins VOR-DME
BSN VOR UL194 (AWY-HI) 19,500 ft / 5,944 m 49.18831˚ 3.05647˚ 20 nm 150 nm 5° / 5° BOURSONNE VOR-DME
O EBCV APT - 0 ft / 0 m 50.57584˚ 3.83108˚ 88 nm 238 nm 19° / 20° Chievres AB

Altitude Profile

Advertisement - Login to hide

Weather


0- 5 10 15 20 25 30 35+ Temperature / ° C

Clouds and Precipitation
Forecast for 2017-12-17 18:00 UTC. Updated an hour ago

Ground ~20,000 ft ~40,000 ft Winds

LFLX

Details ICAO LFLX (CHR)
Name Chateauroux Deols
Region France
Timezone Europe/Paris (UTC+1.0)
Stats Elevation 529 ft / 161 m (AMSL)
Location 46.863750° 1.731667°
Runways 1
Magnetic Variation 0.526° E

METAR

LFLX 171600Z AUTO 28005KT 9999 OVC009 05/03 Q1029 TEMPO 3000 -DZ BKN003

Decode

TAF

TAF AMD LFLX 171408Z 1714/1818 28006KT 9999 BKN007 TEMPO 1714/1717 SCT010 BKN060 TEMPO 1717/1721 3000 -DZ BKN003 BECMG 1800/1802 22008KT 6000 -RA BKN006 TEMPO 1801/1811 20015KT 2000 -DZRA OVC002 BECMG 1811/1813 36010KT 9999 NSW BKN025

Decode

Departure Runways

ID Width Length Bearing (true) Bearing (mag) Surface Threshold Offset Overrun Length
04 148 ft / 45 m 11,473 ft / 3,497 m 32.92° 32.39° Concrete 0 ft / 0 m 0 ft / 0 m
22 148 ft / 45 m 11,473 ft / 3,497 m 212.94° 212.41° Concrete 0 ft / 0 m 0 ft / 0 m

EBCV

Details ICAO EBCV
Name Chievres AB
Region Belgium
Timezone Europe/Brussels (UTC+1.0)
Stats Elevation 201 ft / 61 m (AMSL)
Location 50.575840° 3.831076°
Runways 1
Magnetic Variation 0.936° E

METAR

EBCV 171555Z AUTO 21009KT 9999 SCT081/// OVC130/// 03/01 Q1025 BLU

Decode

TAF

Not found

Destination Runways

ID Width Length Bearing (true) Bearing (mag) Surface Threshold Offset Overrun Length
08 164 ft / 50 m 6,288 ft / 1,917 m 79.82° 78.88° Asphalt 0 ft / 0 m 0 ft / 0 m
26 164 ft / 50 m 6,288 ft / 1,917 m 259.84° 258.90° Asphalt 0 ft / 0 m 0 ft / 0 m

Approach Navaids

Runway Type Ident Frequency Range Bearing (true) Bearing (mag) Slope Elevation
26 Localiser ICV 108.55 MHz 18 nm / 33 km 260.20° 259.26° - 201 ft / 61 m (AMSL)